Ionia, New York
Current Conditions -  °F | °C
As of 8:54 AM on Thursday 27 Nov 2014 (Local Time) from KROC Reporting Station
Light Snow Light Snow  
Wind Chill: 28°   Ceiling: 7000
Heat Index: 28°   Visibility: 8mi
Dew Point: 25°   Wind: 0mph
Humidity: 88%   Direction: NA
Pressure: 30.05"   Gusts: NA
Location:  42.93°N, 77.48°W
Report Text: KROC 271354Z 00000KT 8SM -SN OVC070 M02/M04 A3005 RMK AO2 SLP187 P0000 T10221039
Loading
Personal Weather Stations






























Interactive Weather Map New forecast layout! Learn more

10-Day Weather Forecast

Advertisements
Track Severe Weather on mobile